sensor_id;sensor_type;location;lat;lon;timestamp;pressure;altitude;pressure_sealevel;temperature;humidity
52935;BME280;38802;50.198;19.796;2023-07-20T00:03:12;95514.83;;;19.10;59.20
52935;BME280;38802;50.198;19.796;2023-07-20T00:05:43;95509.70;;;19.06;59.44
52935;BME280;38802;50.198;19.796;2023-07-20T00:08:11;95501.05;;;19.06;59.62
52935;BME280;38802;50.198;19.796;2023-07-20T00:10:38;95497.06;;;19.08;59.68
52935;BME280;38802;50.198;19.796;2023-07-20T00:13:04;95496.70;;;19.05;59.74
52935;BME280;38802;50.198;19.796;2023-07-20T00:15:31;95497.41;;;19.01;59.76
52935;BME280;38802;50.198;19.796;2023-07-20T00:17:58;95499.85;;;19.02;59.99
52935;BME280;38802;50.198;19.796;2023-07-20T00:20:24;95504.52;;;19.02;59.94
52935;BME280;38802;50.198;19.796;2023-07-20T00:22:52;95504.10;;;19.00;60.10
52935;BME280;38802;50.198;19.796;2023-07-20T00:25:18;95503.81;;;18.98;60.23
52935;BME280;38802;50.198;19.796;2023-07-20T00:27:45;95499.70;;;18.96;60.09
52935;BME280;38802;50.198;19.796;2023-07-20T00:30:12;95494.34;;;18.97;60.24
52935;BME280;38802;50.198;19.796;2023-07-20T00:32:39;95497.46;;;18.96;60.24
52935;BME280;38802;50.198;19.796;2023-07-20T00:35:06;95496.36;;;18.95;60.32
52935;BME280;38802;50.198;19.796;2023-07-20T00:37:33;95499.13;;;18.92;60.29
52935;BME280;38802;50.198;19.796;2023-07-20T00:39:59;95496.34;;;18.89;60.27
52935;BME280;38802;50.198;19.796;2023-07-20T00:42:26;95492.20;;;18.90;60.39
52935;BME280;38802;50.198;19.796;2023-07-20T00:44:52;95487.90;;;18.91;60.37
52935;BME280;38802;50.198;19.796;2023-07-20T00:47:19;95489.38;;;18.93;60.38
52935;BME280;38802;50.198;19.796;2023-07-20T00:49:46;95489.48;;;18.91;60.35
52935;BME280;38802;50.198;19.796;2023-07-20T00:52:13;95494.29;;;18.83;60.35
52935;BME280;38802;50.198;19.796;2023-07-20T00:54:43;95496.51;;;18.74;60.31
52935;BME280;38802;50.198;19.796;2023-07-20T00:57:13;95499.90;;;18.71;60.56
52935;BME280;38802;50.198;19.796;2023-07-20T00:59:40;95499.25;;;18.62;60.36
52935;BME280;38802;50.198;19.796;2023-07-20T01:02:07;95498.27;;;18.53;60.74
52935;BME280;38802;50.198;19.796;2023-07-20T01:04:35;95503.11;;;18.42;60.84
52935;BME280;38802;50.198;19.796;2023-07-20T01:09:52;95526.91;;;18.20;61.42
52935;BME280;38802;50.198;19.796;2023-07-20T01:12:36;95537.90;;;18.10;61.84
52935;BME280;38802;50.198;19.796;2023-07-20T01:15:07;95557.88;;;18.00;62.54
52935;BME280;38802;50.198;19.796;2023-07-20T01:17:35;95562.98;;;17.94;63.23
52935;BME280;38802;50.198;19.796;2023-07-20T01:20:02;95564.38;;;17.86;63.26
52935;BME280;38802;50.198;19.796;2023-07-20T01:31:26;95551.09;;;17.87;64.16
52935;BME280;38802;50.198;19.796;2023-07-20T01:33:56;95547.16;;;17.93;64.43
52935;BME280;38802;50.198;19.796;2023-07-20T01:36:26;95543.10;;;17.97;64.36
52935;BME280;38802;50.198;19.796;2023-07-20T01:38:54;95539.23;;;18.00;64.50
52935;BME280;38802;50.198;19.796;2023-07-20T01:41:22;95540.70;;;18.00;64.41
52935;BME280;38802;50.198;19.796;2023-07-20T01:43:49;95541.48;;;18.02;64.33
52935;BME280;38802;50.198;19.796;2023-07-20T01:46:16;95539.20;;;18.01;64.38
52935;BME280;38802;50.198;19.796;2023-07-20T01:48:43;95536.19;;;18.00;64.56
52935;BME280;38802;50.198;19.796;2023-07-20T01:51:09;95537.65;;;18.00;64.54
52935;BME280;38802;50.198;19.796;2023-07-20T01:53:36;95535.08;;;17.96;64.49
52935;BME280;38802;50.198;19.796;2023-07-20T01:56:03;95541.57;;;17.94;64.56
52935;BME280;38802;50.198;19.796;2023-07-20T01:58:30;95544.37;;;17.89;64.60
52935;BME280;38802;50.198;19.796;2023-07-20T02:00:56;95540.88;;;17.85;64.86
52935;BME280;38802;50.198;19.796;2023-07-20T02:03:23;95540.90;;;17.79;65.48
52935;BME280;38802;50.198;19.796;2023-07-20T02:05:52;95540.17;;;17.70;65.35
52935;BME280;38802;50.198;19.796;2023-07-20T02:08:19;95540.87;;;17.61;65.43
52935;BME280;38802;50.198;19.796;2023-07-20T02:10:47;95532.84;;;17.54;65.95
52935;BME280;38802;50.198;19.796;2023-07-20T02:13:14;95521.65;;;17.49;66.85
52935;BME280;38802;50.198;19.796;2023-07-20T02:15:41;95513.89;;;17.44;67.10
52935;BME280;38802;50.198;19.796;2023-07-20T02:18:10;95515.34;;;17.36;67.44
52935;BME280;38802;50.198;19.796;2023-07-20T02:20:36;95515.73;;;17.28;67.25
52935;BME280;38802;50.198;19.796;2023-07-20T02:23:03;95511.67;;;17.26;68.24
52935;BME280;38802;50.198;19.796;2023-07-20T02:25:30;95508.89;;;17.18;67.57
52935;BME280;38802;50.198;19.796;2023-07-20T02:27:57;95505.90;;;17.13;67.42
52935;BME280;38802;50.198;19.796;2023-07-20T02:30:25;95511.11;;;17.11;67.54
52935;BME280;38802;50.198;19.796;2023-07-20T02:32:53;95507.76;;;17.09;67.64
52935;BME280;38802;50.198;19.796;2023-07-20T02:35:22;95510.77;;;17.07;67.74
52935;BME280;38802;50.198;19.796;2023-07-20T02:37:48;95508.42;;;17.08;68.57
52935;BME280;38802;50.198;19.796;2023-07-20T02:40:15;95511.80;;;17.05;68.67
52935;BME280;38802;50.198;19.796;2023-07-20T02:42:42;95514.58;;;17.00;68.78
52935;BME280;38802;50.198;19.796;2023-07-20T02:45:09;95518.14;;;16.97;68.79
52935;BME280;38802;50.198;19.796;2023-07-20T02:47:35;95520.16;;;16.93;69.24
52935;BME280;38802;50.198;19.796;2023-07-20T02:50:03;95515.34;;;16.89;69.36
52935;BME280;38802;50.198;19.796;2023-07-20T02:52:30;95511.34;;;16.86;69.33
52935;BME280;38802;50.198;19.796;2023-07-20T02:54:57;95517.61;;;16.83;69.41
52935;BME280;38802;50.198;19.796;2023-07-20T02:57:24;95522.31;;;16.81;69.57
52935;BME280;38802;50.198;19.796;2023-07-20T02:59:50;95527.76;;;16.79;69.73
52935;BME280;38802;50.198;19.796;2023-07-20T03:02:17;95528.92;;;16.76;69.34
52935;BME280;38802;50.198;19.796;2023-07-20T03:04:43;95530.10;;;16.73;69.63
52935;BME280;38802;50.198;19.796;2023-07-20T03:07:10;95534.37;;;16.71;69.97
52935;BME280;38802;50.198;19.796;2023-07-20T03:09:37;95542.14;;;16.68;69.94
52935;BME280;38802;50.198;19.796;2023-07-20T03:12:04;95539.14;;;16.64;70.31
52935;BME280;38802;50.198;19.796;2023-07-20T03:14:31;95546.41;;;16.61;70.61
52935;BME280;38802;50.198;19.796;2023-07-20T03:16:58;95552.92;;;16.58;70.82
52935;BME280;38802;50.198;19.796;2023-07-20T03:19:25;95557.45;;;16.55;71.12
52935;BME280;38802;50.198;19.796;2023-07-20T03:21:51;95559.81;;;16.48;71.29
52935;BME280;38802;50.198;19.796;2023-07-20T03:24:18;95560.83;;;16.44;71.01
52935;BME280;38802;50.198;19.796;2023-07-20T03:26:46;95556.74;;;16.44;71.84
52935;BME280;38802;50.198;19.796;2023-07-20T03:29:13;95555.73;;;16.40;71.57
52935;BME280;38802;50.198;19.796;2023-07-20T03:31:40;95564.44;;;16.37;72.39
52935;BME280;38802;50.198;19.796;2023-07-20T03:34:07;95558.52;;;16.33;72.33
52935;BME280;38802;50.198;19.796;2023-07-20T03:36:35;95553.34;;;16.36;73.27
52935;BME280;38802;50.198;19.796;2023-07-20T03:39:02;95564.27;;;16.29;73.31
52935;BME280;38802;50.198;19.796;2023-07-20T03:41:29;95568.81;;;16.22;74.03
52935;BME280;38802;50.198;19.796;2023-07-20T03:43:56;95580.33;;;16.14;74.24
52935;BME280;38802;50.198;19.796;2023-07-20T03:46:23;95580.83;;;16.08;74.69
52935;BME280;38802;50.198;19.796;2023-07-20T03:48:50;95584.93;;;16.01;75.53
52935;BME280;38802;50.198;19.796;2023-07-20T03:51:16;95578.75;;;15.95;76.39
52935;BME280;38802;50.198;19.796;2023-07-20T03:53:43;95577.77;;;15.85;77.17
52935;BME280;38802;50.198;19.796;2023-07-20T03:56:10;95576.80;;;15.68;77.11
52935;BME280;38802;50.198;19.796;2023-07-20T03:58:37;95581.42;;;15.61;77.54
52935;BME280;38802;50.198;19.796;2023-07-20T04:01:04;95587.96;;;15.57;78.28
52935;BME280;38802;50.198;19.796;2023-07-20T04:03:30;95590.80;;;15.50;78.62
52935;BME280;38802;50.198;19.796;2023-07-20T04:05:57;95595.08;;;15.44;78.68
52935;BME280;38802;50.198;19.796;2023-07-20T04:08:24;95608.04;;;15.37;78.90
52935;BME280;38802;50.198;19.796;2023-07-20T04:10:51;95609.55;;;15.34;79.19
52935;BME280;38802;50.198;19.796;2023-07-20T04:13:18;95607.61;;;15.36;79.42
52935;BME280;38802;50.198;19.796;2023-07-20T04:15:44;95609.20;;;15.34;79.77
52935;BME280;38802;50.198;19.796;2023-07-20T04:18:11;95616.09;;;15.34;80.25
52935;BME280;38802;50.198;19.796;2023-07-20T04:20:38;95626.35;;;15.28;80.35
52935;BME280;38802;50.198;19.796;2023-07-20T04:23:05;95620.63;;;15.25;80.57
52935;BME280;38802;50.198;19.796;2023-07-20T04:25:33;95618.95;;;15.24;80.68
52935;BME280;38802;50.198;19.796;2023-07-20T04:28:09;95624.84;;;15.18;80.35
52935;BME280;38802;50.198;19.796;2023-07-20T04:30:39;95631.36;;;15.24;80.46
52935;BME280;38802;50.198;19.796;2023-07-20T04:33:06;95631.23;;;15.28;80.71
52935;BME280;38802;50.198;19.796;2023-07-20T04:35:53;95633.33;;;15.25;80.42
52935;BME280;38802;50.198;19.796;2023-07-20T04:38:26;95647.19;;;15.28;80.09
52935;BME280;38802;50.198;19.796;2023-07-20T04:41:01;95649.60;;;15.33;80.05
52935;BME280;38802;50.198;19.796;2023-07-20T04:43:30;95650.70;;;15.39;80.63
52935;BME280;38802;50.198;19.796;2023-07-20T04:45:57;95664.35;;;15.37;80.49
52935;BME280;38802;50.198;19.796;2023-07-20T04:48:24;95668.47;;;15.35;80.84
52935;BME280;38802;50.198;19.796;2023-07-20T04:50:53;95667.22;;;15.35;80.89
52935;BME280;38802;50.198;19.796;2023-07-20T04:53:20;95667.94;;;15.34;80.67
52935;BME280;38802;50.198;19.796;2023-07-20T04:55:50;95676.98;;;15.35;80.73
52935;BME280;38802;50.198;19.796;2023-07-20T04:58:21;95677.05;;;15.35;80.68
52935;BME280;38802;50.198;19.796;2023-07-20T05:00:50;95682.05;;;15.36;81.35
52935;BME280;38802;50.198;19.796;2023-07-20T05:03:17;95679.48;;;15.29;81.33
52935;BME280;38802;50.198;19.796;2023-07-20T05:05:46;95687.47;;;15.22;81.87
52935;BME280;38802;50.198;19.796;2023-07-20T05:08:16;95691.04;;;15.16;82.01
52935;BME280;38802;50.198;19.796;2023-07-20T05:10:43;95688.25;;;15.10;81.67
52935;BME280;38802;50.198;19.796;2023-07-20T05:13:10;95685.48;;;15.16;81.87
52935;BME280;38802;50.198;19.796;2023-07-20T05:15:36;95690.31;;;15.15;81.69
52935;BME280;38802;50.198;19.796;2023-07-20T05:18:04;95685.73;;;15.18;81.23
52935;BME280;38802;50.198;19.796;2023-07-20T05:20:31;95675.11;;;15.26;81.67
52935;BME280;38802;50.198;19.796;2023-07-20T05:23:00;95659.84;;;15.32;81.22
52935;BME280;38802;50.198;19.796;2023-07-20T05:25:27;95660.00;;;15.44;81.12
52935;BME280;38802;50.198;19.796;2023-07-20T05:27:57;95662.45;;;15.53;80.80
52935;BME280;38802;50.198;19.796;2023-07-20T05:30:24;95673.98;;;15.60;80.81
52935;BME280;38802;50.198;19.796;2023-07-20T05:32:50;95676.56;;;15.62;80.56
52935;BME280;38802;50.198;19.796;2023-07-20T05:35:18;95670.63;;;15.63;80.39
52935;BME280;38802;50.198;19.796;2023-07-20T05:37:45;95670.33;;;15.66;80.29
52935;BME280;38802;50.198;19.796;2023-07-20T05:40:13;95677.73;;;15.70;80.18
52935;BME280;38802;50.198;19.796;2023-07-20T05:42:41;95673.17;;;15.75;80.16
52935;BME280;38802;50.198;19.796;2023-07-20T05:45:08;95669.45;;;15.71;79.99
52935;BME280;38802;50.198;19.796;2023-07-20T05:47:34;95666.28;;;15.74;79.90
52935;BME280;38802;50.198;19.796;2023-07-20T05:50:01;95663.89;;;15.74;79.76
52935;BME280;38802;50.198;19.796;2023-07-20T05:52:28;95668.24;;;15.75;79.79
52935;BME280;38802;50.198;19.796;2023-07-20T05:54:54;95671.09;;;15.78;79.77
52935;BME280;38802;50.198;19.796;2023-07-20T05:57:21;95674.22;;;15.81;79.82
52935;BME280;38802;50.198;19.796;2023-07-20T05:59:48;95676.52;;;15.81;79.74
52935;BME280;38802;50.198;19.796;2023-07-20T06:02:16;95676.79;;;15.82;79.83
52935;BME280;38802;50.198;19.796;2023-07-20T06:04:43;95685.38;;;15.83;79.77
52935;BME280;38802;50.198;19.796;2023-07-20T06:07:09;95685.77;;;15.83;79.47
52935;BME280;38802;50.198;19.796;2023-07-20T06:09:36;95680.50;;;15.88;79.67
52935;BME280;38802;50.198;19.796;2023-07-20T06:12:03;95681.05;;;15.93;79.54
52935;BME280;38802;50.198;19.796;2023-07-20T06:14:30;95683.48;;;15.98;79.59
52935;BME280;38802;50.198;19.796;2023-07-20T06:16:57;95694.95;;;15.99;79.50
52935;BME280;38802;50.198;19.796;2023-07-20T06:19:23;95698.26;;;16.04;79.43
52935;BME280;38802;50.198;19.796;2023-07-20T06:21:50;95702.23;;;16.09;79.40
52935;BME280;38802;50.198;19.796;2023-07-20T06:24:17;95700.05;;;16.18;79.49
52935;BME280;38802;50.198;19.796;2023-07-20T06:26:44;95702.89;;;16.22;79.45
52935;BME280;38802;50.198;19.796;2023-07-20T06:29:11;95697.31;;;16.31;79.60
52935;BME280;38802;50.198;19.796;2023-07-20T06:31:37;95699.73;;;16.64;79.88
52935;BME280;38802;50.198;19.796;2023-07-20T06:34:04;95699.24;;;17.01;79.87
52935;BME280;38802;50.198;19.796;2023-07-20T06:36:31;95689.16;;;17.39;79.57
52935;BME280;38802;50.198;19.796;2023-07-20T06:38:58;95687.15;;;17.71;78.28
52935;BME280;38802;50.198;19.796;2023-07-20T06:41:27;95684.63;;;17.99;78.29
52935;BME280;38802;50.198;19.796;2023-07-20T06:43:57;95680.80;;;18.26;77.30
52935;BME280;38802;50.198;19.796;2023-07-20T06:46:26;95682.88;;;18.48;76.54
52935;BME280;38802;50.198;19.796;2023-07-20T06:48:54;95684.84;;;18.70;75.67
52935;BME280;38802;50.198;19.796;2023-07-20T06:51:24;95684.51;;;18.88;75.22
52935;BME280;38802;50.198;19.796;2023-07-20T06:53:51;95686.10;;;19.08;74.45
52935;BME280;38802;50.198;19.796;2023-07-20T06:56:18;95688.56;;;19.28;74.47
52935;BME280;38802;50.198;19.796;2023-07-20T06:58:46;95684.21;;;19.57;74.32
52935;BME280;38802;50.198;19.796;2023-07-20T07:01:13;95684.35;;;19.85;73.58
52935;BME280;38802;50.198;19.796;2023-07-20T07:03:41;95685.02;;;20.03;72.49
52935;BME280;38802;50.198;19.796;2023-07-20T07:06:07;95687.46;;;19.95;72.11
52935;BME280;38802;50.198;19.796;2023-07-20T07:08:34;95688.32;;;19.90;71.77
52935;BME280;38802;50.198;19.796;2023-07-20T07:11:01;95688.60;;;20.01;71.26
52935;BME280;38802;50.198;19.796;2023-07-20T07:13:28;95685.21;;;20.14;71.00
52935;BME280;38802;50.198;19.796;2023-07-20T07:15:54;95683.48;;;20.31;71.20
52935;BME280;38802;50.198;19.796;2023-07-20T07:18:21;95683.44;;;20.53;70.75
52935;BME280;38802;50.198;19.796;2023-07-20T07:20:52;95682.73;;;20.75;70.78
52935;BME280;38802;50.198;19.796;2023-07-20T07:23:20;95687.85;;;20.96;69.95
52935;BME280;38802;50.198;19.796;2023-07-20T07:25:46;95686.10;;;21.01;68.22
52935;BME280;38802;50.198;19.796;2023-07-20T07:28:13;95681.61;;;21.07;68.48
52935;BME280;38802;50.198;19.796;2023-07-20T07:30:41;95678.70;;;21.19;68.02
52935;BME280;38802;50.198;19.796;2023-07-20T07:33:07;95672.67;;;21.34;67.54
52935;BME280;38802;50.198;19.796;2023-07-20T07:35:35;95675.38;;;21.47;66.57
52935;BME280;38802;50.198;19.796;2023-07-20T07:38:02;95678.78;;;21.50;64.83
52935;BME280;38802;50.198;19.796;2023-07-20T07:40:40;95685.20;;;21.45;65.51
52935;BME280;38802;50.198;19.796;2023-07-20T07:43:06;95688.24;;;21.51;65.73
52935;BME280;38802;50.198;19.796;2023-07-20T07:45:35;95690.18;;;21.42;64.85
52935;BME280;38802;50.198;19.796;2023-07-20T07:48:07;95693.69;;;21.22;63.61
52935;BME280;38802;50.198;19.796;2023-07-20T07:50:34;95698.86;;;21.01;64.34
52935;BME280;38802;50.198;19.796;2023-07-20T07:53:01;95702.04;;;20.85;64.53
52935;BME280;38802;50.198;19.796;2023-07-20T07:55:28;95700.98;;;20.74;64.79
52935;BME280;38802;50.198;19.796;2023-07-20T07:57:54;95704.38;;;20.79;64.94
52935;BME280;38802;50.198;19.796;2023-07-20T08:00:21;95709.52;;;20.79;64.00
52935;BME280;38802;50.198;19.796;2023-07-20T08:02:50;95708.75;;;20.58;64.18
52935;BME280;38802;50.198;19.796;2023-07-20T08:05:17;95714.55;;;20.39;64.35
52935;BME280;38802;50.198;19.796;2023-07-20T08:07:43;95717.17;;;20.38;64.26
52935;BME280;38802;50.198;19.796;2023-07-20T08:10:11;95715.95;;;20.38;64.47
52935;BME280;38802;50.198;19.796;2023-07-20T08:12:38;95721.33;;;20.42;64.26
52935;BME280;38802;50.198;19.796;2023-07-20T08:15:04;95721.28;;;20.55;64.34
52935;BME280;38802;50.198;19.796;2023-07-20T08:17:31;95719.77;;;20.72;63.76
52935;BME280;38802;50.198;19.796;2023-07-20T08:19:58;95722.98;;;20.80;63.92
52935;BME280;38802;50.198;19.796;2023-07-20T08:22:25;95723.77;;;20.78;63.45
52935;BME280;38802;50.198;19.796;2023-07-20T08:24:52;95720.73;;;20.94;64.00
52935;BME280;38802;50.198;19.796;2023-07-20T08:27:19;95719.67;;;21.24;63.81
52935;BME280;38802;50.198;19.796;2023-07-20T08:29:45;95720.52;;;21.45;63.54
52935;BME280;38802;50.198;19.796;2023-07-20T08:32:12;95722.36;;;21.65;62.74
52935;BME280;38802;50.198;19.796;2023-07-20T08:34:41;95723.62;;;21.78;62.35
52935;BME280;38802;50.198;19.796;2023-07-20T08:37:08;95726.80;;;21.91;62.09
52935;BME280;38802;50.198;19.796;2023-07-20T08:39:36;95724.92;;;21.88;61.73
52935;BME280;38802;50.198;19.796;2023-07-20T08:42:04;95726.02;;;21.89;61.73
52935;BME280;38802;50.198;19.796;2023-07-20T08:44:33;95732.52;;;21.85;61.22
52935;BME280;38802;50.198;19.796;2023-07-20T08:47:01;95735.73;;;21.83;61.75
52935;BME280;38802;50.198;19.796;2023-07-20T08:49:32;95734.48;;;22.01;61.83
52935;BME280;38802;50.198;19.796;2023-07-20T08:51:59;95737.48;;;22.19;61.26
52935;BME280;38802;50.198;19.796;2023-07-20T08:54:30;95737.67;;;22.23;61.16
52935;BME280;38802;50.198;19.796;2023-07-20T08:57:04;95735.31;;;22.36;61.10
52935;BME280;38802;50.198;19.796;2023-07-20T08:59:31;95737.05;;;22.48;60.87
52935;BME280;38802;50.198;19.796;2023-07-20T09:01:59;95738.05;;;22.46;60.32
52935;BME280;38802;50.198;19.796;2023-07-20T09:04:26;95738.88;;;22.26;60.24
52935;BME280;38802;50.198;19.796;2023-07-20T09:06:53;95740.42;;;21.92;60.28
52935;BME280;38802;50.198;19.796;2023-07-20T09:09:20;95750.77;;;21.60;60.70
52935;BME280;38802;50.198;19.796;2023-07-20T09:11:49;95750.50;;;21.42;61.00
52935;BME280;38802;50.198;19.796;2023-07-20T09:14:16;95749.45;;;21.35;61.28
52935;BME280;38802;50.198;19.796;2023-07-20T09:16:53;95744.05;;;21.51;61.64
52935;BME280;38802;50.198;19.796;2023-07-20T09:19:22;95741.73;;;21.75;61.39
52935;BME280;38802;50.198;19.796;2023-07-20T09:21:50;95740.80;;;21.91;60.96
52935;BME280;38802;50.198;19.796;2023-07-20T09:24:20;95737.74;;;22.07;60.72
52935;BME280;38802;50.198;19.796;2023-07-20T09:26:48;95738.23;;;22.24;60.26
52935;BME280;38802;50.198;19.796;2023-07-20T09:29:18;95737.05;;;22.33;59.80
52935;BME280;38802;50.198;19.796;2023-07-20T09:32:04;95734.94;;;22.31;59.50
52935;BME280;38802;50.198;19.796;2023-07-20T09:34:32;95740.54;;;22.20;59.70
52935;BME280;38802;50.198;19.796;2023-07-20T09:37:02;95745.73;;;22.26;59.26
52935;BME280;38802;50.198;19.796;2023-07-20T09:39:29;95745.77;;;22.19;59.33
52935;BME280;38802;50.198;19.796;2023-07-20T09:42:00;95746.24;;;22.07;59.27
52935;BME280;38802;50.198;19.796;2023-07-20T09:44:31;95751.27;;;21.87;59.37
52935;BME280;38802;50.198;19.796;2023-07-20T09:47:03;95757.61;;;21.66;58.98
52935;BME280;38802;50.198;19.796;2023-07-20T09:49:30;95756.98;;;21.43;59.47
52935;BME280;38802;50.198;19.796;2023-07-20T09:52:17;95757.70;;;21.25;59.59
52935;BME280;38802;50.198;19.796;2023-07-20T09:55:08;95757.70;;;21.07;59.81
52935;BME280;38802;50.198;19.796;2023-07-20T09:57:35;95761.58;;;20.98;59.75
52935;BME280;38802;50.198;19.796;2023-07-20T10:00:07;95760.94;;;21.04;60.28
52935;BME280;38802;50.198;19.796;2023-07-20T10:02:44;95751.02;;;21.15;60.43
52935;BME280;38802;50.198;19.796;2023-07-20T10:05:15;95748.06;;;21.21;60.38
52935;BME280;38802;50.198;19.796;2023-07-20T10:07:50;95745.45;;;21.37;60.17
52935;BME280;38802;50.198;19.796;2023-07-20T10:10:18;95747.14;;;21.53;59.37
52935;BME280;38802;50.198;19.796;2023-07-20T10:12:47;95746.61;;;21.57;59.51
52935;BME280;38802;50.198;19.796;2023-07-20T10:15:20;95743.86;;;21.64;59.74
52935;BME280;38802;50.198;19.796;2023-07-20T10:17:59;95744.10;;;21.67;59.33
52935;BME280;38802;50.198;19.796;2023-07-20T10:20:29;95748.71;;;21.58;59.34
52935;BME280;38802;50.198;19.796;2023-07-20T10:22:59;95747.87;;;21.53;59.15
52935;BME280;38802;50.198;19.796;2023-07-20T10:25:27;95743.79;;;21.53;59.08
52935;BME280;38802;50.198;19.796;2023-07-20T10:27:55;95746.65;;;21.49;59.18
52935;BME280;38802;50.198;19.796;2023-07-20T10:30:24;95748.00;;;21.44;59.13
52935;BME280;38802;50.198;19.796;2023-07-20T10:32:52;95745.77;;;21.43;59.16
52935;BME280;38802;50.198;19.796;2023-07-20T10:35:19;95744.92;;;21.58;59.12
52935;BME280;38802;50.198;19.796;2023-07-20T10:37:56;95749.86;;;21.69;59.38
52935;BME280;38802;50.198;19.796;2023-07-20T10:40:33;95752.92;;;21.60;59.28
52935;BME280;38802;50.198;19.796;2023-07-20T10:43:02;95748.15;;;21.59;59.27
52935;BME280;38802;50.198;19.796;2023-07-20T10:45:36;95752.09;;;21.66;59.06
52935;BME280;38802;50.198;19.796;2023-07-20T10:48:12;95748.70;;;21.80;59.25
52935;BME280;38802;50.198;19.796;2023-07-20T10:50:41;95743.23;;;21.97;59.30
52935;BME280;38802;50.198;19.796;2023-07-20T10:53:18;95738.92;;;22.11;59.40
52935;BME280;38802;50.198;19.796;2023-07-20T10:55:45;95741.17;;;22.12;59.07
52935;BME280;38802;50.198;19.796;2023-07-20T10:58:16;95734.89;;;21.99;58.97
52935;BME280;38802;50.198;19.796;2023-07-20T11:01:05;95740.58;;;21.94;58.85
52935;BME280;38802;50.198;19.796;2023-07-20T11:03:33;95747.58;;;21.88;58.86
52935;BME280;38802;50.198;19.796;2023-07-20T11:09:02;95744.48;;;21.86;59.32
52935;BME280;38802;50.198;19.796;2023-07-20T11:11:32;95757.07;;;21.79;59.66
52935;BME280;38802;50.198;19.796;2023-07-20T11:14:01;95762.84;;;21.59;59.70
52935;BME280;38802;50.198;19.796;2023-07-20T11:16:39;95764.16;;;21.44;59.99
52935;BME280;38802;50.198;19.796;2023-07-20T11:19:14;95764.36;;;21.48;60.48
52935;BME280;38802;50.198;19.796;2023-07-20T11:21:53;95761.73;;;21.55;60.59
52935;BME280;38802;50.198;19.796;2023-07-20T11:24:30;95758.55;;;21.59;60.55
52935;BME280;38802;50.198;19.796;2023-07-20T11:26:57;95757.73;;;21.65;60.84
52935;BME280;38802;50.198;19.796;2023-07-20T11:29:24;95757.86;;;21.78;60.52
52935;BME280;38802;50.198;19.796;2023-07-20T11:32:00;95750.84;;;21.87;60.53
52935;BME280;38802;50.198;19.796;2023-07-20T11:34:29;95739.23;;;21.98;60.13
52935;BME280;38802;50.198;19.796;2023-07-20T11:36:56;95736.20;;;22.07;60.23
52935;BME280;38802;50.198;19.796;2023-07-20T11:39:27;95735.33;;;22.17;60.15
52935;BME280;38802;50.198;19.796;2023-07-20T11:41:56;95731.80;;;22.30;59.88
52935;BME280;38802;50.198;19.796;2023-07-20T11:44:25;95731.52;;;22.38;59.36
52935;BME280;38802;50.198;19.796;2023-07-20T11:47:02;95727.10;;;22.44;59.10
52935;BME280;38802;50.198;19.796;2023-07-20T11:49:34;95721.45;;;22.49;58.84
52935;BME280;38802;50.198;19.796;2023-07-20T11:52:01;95718.50;;;22.49;57.28
52935;BME280;38802;50.198;19.796;2023-07-20T11:54:28;95716.66;;;22.43;57.56
52935;BME280;38802;50.198;19.796;2023-07-20T11:56:55;95716.52;;;22.39;57.46
52935;BME280;38802;50.198;19.796;2023-07-20T11:59:22;95708.38;;;22.41;57.44
52935;BME280;38802;50.198;19.796;2023-07-20T12:01:49;95707.23;;;22.47;57.06
52935;BME280;38802;50.198;19.796;2023-07-20T12:04:17;95705.70;;;22.54;56.90
52935;BME280;38802;50.198;19.796;2023-07-20T12:06:45;95703.78;;;22.57;56.46
52935;BME280;38802;50.198;19.796;2023-07-20T12:09:16;95699.96;;;22.60;56.80
52935;BME280;38802;50.198;19.796;2023-07-20T12:11:44;95706.76;;;22.65;56.54
52935;BME280;38802;50.198;19.796;2023-07-20T12:14:11;95706.88;;;22.70;56.20
52935;BME280;38802;50.198;19.796;2023-07-20T12:16:44;95701.27;;;22.71;55.92
52935;BME280;38802;50.198;19.796;2023-07-20T12:19:12;95698.58;;;22.70;55.45
52935;BME280;38802;50.198;19.796;2023-07-20T12:21:41;95702.74;;;22.71;55.38
52935;BME280;38802;50.198;19.796;2023-07-20T12:24:10;95703.17;;;22.74;55.43
52935;BME280;38802;50.198;19.796;2023-07-20T12:26:37;95705.42;;;22.73;54.93
52935;BME280;38802;50.198;19.796;2023-07-20T12:29:04;95703.85;;;22.70;54.43
52935;BME280;38802;50.198;19.796;2023-07-20T12:31:34;95701.92;;;22.71;54.18
52935;BME280;38802;50.198;19.796;2023-07-20T12:34:03;95699.17;;;22.68;54.17
52935;BME280;38802;50.198;19.796;2023-07-20T12:36:30;95696.98;;;22.70;53.76
52935;BME280;38802;50.198;19.796;2023-07-20T12:38:58;95700.20;;;22.66;53.58
52935;BME280;38802;50.198;19.796;2023-07-20T12:41:24;95692.94;;;22.65;53.87
52935;BME280;38802;50.198;19.796;2023-07-20T12:43:51;95688.88;;;22.72;54.02
52935;BME280;38802;50.198;19.796;2023-07-20T12:46:19;95693.83;;;22.82;54.13
52935;BME280;38802;50.198;19.796;2023-07-20T12:48:46;95697.67;;;22.78;54.07
52935;BME280;38802;50.198;19.796;2023-07-20T12:51:16;95692.77;;;22.72;53.86
52935;BME280;38802;50.198;19.796;2023-07-20T12:53:43;95690.64;;;22.77;54.25
52935;BME280;38802;50.198;19.796;2023-07-20T12:56:10;95688.52;;;22.81;54.38
52935;BME280;38802;50.198;19.796;2023-07-20T12:58:39;95689.83;;;22.78;54.47
52935;BME280;38802;50.198;19.796;2023-07-20T13:01:06;95681.09;;;22.66;54.07
52935;BME280;38802;50.198;19.796;2023-07-20T13:03:33;95681.56;;;22.54;54.03
52935;BME280;38802;50.198;19.796;2023-07-20T13:06:01;95685.20;;;22.56;54.16
52935;BME280;38802;50.198;19.796;2023-07-20T13:08:30;95687.95;;;22.60;53.89
52935;BME280;38802;50.198;19.796;2023-07-20T13:10:57;95684.11;;;22.60;53.43
52935;BME280;38802;50.198;19.796;2023-07-20T13:13:24;95687.29;;;22.53;53.75